Time;durP1;ratioP1;P1;durP2;ratioP2;P2;SDS_P1;SDS_P2;PMS_P1;PMS_P2;Temp;Humidity;BMP_temperature;BMP_pressure;BME280_temperature;BME280_humidity;BME280_pressure;Samples;Min_cycle;Max_cycle;Signal;HPM_P1;HPM_P2
2023/08/26 00:02:27;;;;;;;8.32;4.43;;;;;;;29.41;47.43;99335.38;4316485;33;33181;-70
2023/08/26 00:04:55;;;;;;;8.18;4.57;;;;;;;29.42;47.39;99336.19;4315876;33;34286;-72
2023/08/26 00:07:23;;;;;;;9.13;4.53;;;;;;;29.40;47.42;99341.97;4302929;33;34039;-71
2023/08/26 00:09:50;;;;;;;10.15;4.32;;;;;;;29.41;47.47;99342.81;4302644;33;33785;-72
2023/08/26 00:12:18;;;;;;;11.30;4.90;;;;;;;29.39;47.50;99334.84;4316279;33;33355;-70
2023/08/26 00:14:46;;;;;;;10.70;4.82;;;;;;;29.39;47.56;99332.09;4315889;33;33850;-71
2023/08/26 00:17:14;;;;;;;8.98;4.60;;;;;;;29.39;47.62;99342.28;4317205;33;34171;-71
2023/08/26 00:19:42;;;;;;;6.15;4.35;;;;;;;29.38;47.66;99330.47;4305012;33;34166;-71
2023/08/26 00:22:10;;;;;;;7.07;4.40;;;;;;;29.37;47.70;99323.28;4318441;33;33606;-71
2023/08/26 00:24:38;;;;;;;7.62;4.60;;;;;;;29.39;47.66;99336.78;4318057;33;33640;-73
2023/08/26 00:27:06;;;;;;;5.93;4.20;;;;;;;29.37;47.64;99319.72;4318087;33;33726;-70
2023/08/26 00:29:34;;;;;;;6.95;4.35;;;;;;;29.35;47.66;99322.75;4318138;33;34820;-72
2023/08/26 00:32:01;;;;;;;7.43;4.53;;;;;;;29.35;47.61;99325.50;4304654;33;33478;-72
2023/08/26 00:34:30;;;;;;;9.80;4.28;;;;;;;29.33;47.66;99327.72;4306565;33;33748;-72
2023/08/26 00:36:57;;;;;;;8.20;4.80;;;;;;;29.34;47.65;99329.38;4303396;33;34825;-72
2023/08/26 00:39:25;;;;;;;11.38;4.65;;;;;;;29.33;47.67;99333.22;4303160;33;34508;-70
2023/08/26 00:41:53;;;;;;;8.68;4.72;;;;;;;29.33;47.68;99327.72;4278684;33;34520;-70
2023/08/26 00:44:22;;;;;;;8.45;4.40;;;;;;;29.32;47.68;99333.47;4290115;33;33087;-74
2023/08/26 00:46:50;;;;;;;8.75;4.65;;;;;;;29.31;47.70;99329.91;4303447;33;34139;-70
2023/08/26 00:49:18;;;;;;;10.27;4.10;;;;;;;29.31;47.70;99335.41;4290570;33;34113;-75
2023/08/26 00:51:46;;;;;;;8.75;3.87;;;;;;;29.31;47.72;99329.09;4290254;33;34317;-70
2023/08/26 00:54:14;;;;;;;6.18;4.00;;;;;;;29.30;47.75;99322.78;4278335;33;32717;-75
2023/08/26 00:56:42;;;;;;;6.85;4.35;;;;;;;29.30;47.76;99335.69;4290230;33;34808;-74
2023/08/26 00:59:10;;;;;;;9.65;4.80;;;;;;;29.30;47.78;99343.94;4290381;33;35388;-74
2023/08/26 01:01:38;;;;;;;9.52;4.68;;;;;;;29.28;47.81;99346.94;4290147;33;34224;-72
2023/08/26 01:04:06;;;;;;;9.85;4.75;;;;;;;29.28;47.85;99360.69;4290075;33;33551;-73
2023/08/26 01:06:33;;;;;;;7.10;4.57;;;;;;;29.27;47.81;99358.22;4290273;33;33364;-71
2023/08/26 01:09:01;;;;;;;10.80;4.70;;;;;;;29.26;47.77;99362.88;4303065;33;34528;-73
2023/08/26 01:11:36;;;;;;;9.07;4.72;;;;;;;29.26;47.74;99368.37;4290256;33;34545;-70
2023/08/26 01:14:10;;;;;;;8.90;5.00;;;;;;;29.27;47.62;99361.78;4290250;33;34620;-70
2023/08/26 01:16:39;;;;;;;7.95;5.20;;;;;;;29.26;47.62;99356.56;4303488;33;34875;-72
2023/08/26 01:19:26;;;;;;;;;;;;;;;29.24;47.58;99365.09;4290591;33;34839;-75
2023/08/26 01:21:55;;;;;;;9.68;4.60;;;;;;;29.36;47.27;99362.88;4303326;33;33452;-71
2023/08/26 01:24:23;;;;;;;9.27;4.93;;;;;;;29.25;47.50;99361.25;4290196;33;34667;-72
2023/08/26 01:26:52;;;;;;;9.45;5.12;;;;;;;29.23;47.51;99358.75;4278289;33;32948;-73
2023/08/26 01:29:20;;;;;;;7.53;5.15;;;;;;;29.21;47.54;99352.72;4277740;33;34494;-70
2023/08/26 01:31:50;;;;;;;8.85;5.28;;;;;;;29.21;47.44;99357.41;4303321;33;33519;-72
2023/08/26 01:34:20;;;;;;;8.32;4.45;;;;;;;29.20;47.50;99358.50;4300030;33;33455;-72
2023/08/26 01:36:49;;;;;;;8.02;4.70;;;;;;;29.19;47.57;99363.19;4292882;33;34656;-71
2023/08/26 01:39:16;;;;;;;9.15;5.53;;;;;;;29.18;47.58;99356.00;4292314;33;34458;-70
2023/08/26 01:41:50;;;;;;;9.52;4.87;;;;;;;29.18;47.62;99344.22;4292411;33;34122;-72
2023/08/26 01:44:19;;;;;;;8.32;5.25;;;;;;;29.18;47.62;99339.53;4304414;33;34620;-70
2023/08/26 01:46:47;;;;;;;9.98;4.97;;;;;;;29.17;47.63;99326.06;4304291;33;33865;-75
2023/08/26 01:49:15;;;;;;;9.40;5.00;;;;;;;29.16;47.69;99328.00;4280793;33;33940;-72
2023/08/26 01:51:43;;;;;;;8.55;4.68;;;;;;;29.18;47.66;99325.78;4304413;33;33382;-75
2023/08/26 01:54:10;;;;;;;6.93;4.60;;;;;;;29.17;47.69;99324.16;4304250;33;33521;-70
2023/08/26 01:56:38;;;;;;;8.73;4.55;;;;;;;29.16;47.72;99335.44;4317601;33;33948;-73
2023/08/26 01:59:06;;;;;;;8.07;4.85;;;;;;;29.16;47.73;99333.50;4317460;33;34087;-71
2023/08/26 02:01:34;;;;;;;9.77;5.12;;;;;;;29.16;47.86;99336.25;4317622;33;33315;-73
2023/08/26 02:04:02;;;;;;;8.18;4.50;;;;;;;29.16;47.99;99333.50;4317612;33;33843;-71
2023/08/26 02:06:30;;;;;;;7.30;4.43;;;;;;;29.16;47.99;99333.50;4317594;33;33768;-74
2023/08/26 02:08:58;;;;;;;8.57;4.43;;;;;;;29.16;47.93;99338.19;4317335;33;34105;-72
2023/08/26 02:11:26;;;;;;;9.32;5.10;;;;;;;29.14;47.85;99321.94;4292172;33;33545;-73
2023/08/26 02:13:54;;;;;;;10.07;5.12;;;;;;;29.15;47.80;99320.88;4317784;33;34325;-70
2023/08/26 02:16:21;;;;;;;10.05;4.93;;;;;;;29.14;47.75;99313.72;4317350;33;33851;-72
2023/08/26 02:18:49;;;;;;;6.18;4.25;;;;;;;29.14;47.84;99307.37;4317429;33;34327;-73
2023/08/26 02:21:17;;;;;;;9.18;4.90;;;;;;;29.13;47.80;99312.06;4304341;33;34387;-74
2023/08/26 02:23:45;;;;;;;9.80;5.12;;;;;;;29.13;47.75;99301.06;4317416;33;33054;-70
2023/08/26 02:26:15;;;;;;;9.13;5.35;;;;;;;29.11;47.75;99303.28;4317389;33;34497;-70
2023/08/26 02:28:43;;;;;;;7.80;4.87;;;;;;;29.12;47.76;99310.44;4317392;33;34066;-75
2023/08/26 02:31:10;;;;;;;9.38;5.22;;;;;;;29.11;47.75;99314.28;4317477;33;33009;-72
2023/08/26 02:33:39;;;;;;;8.18;4.50;;;;;;;29.11;47.74;99303.28;4298065;33;34055;-73
2023/08/26 02:36:06;;;;;;;9.43;5.07;;;;;;;29.10;47.81;99298.06;4289676;33;33517;-73
2023/08/26 02:38:34;;;;;;;7.62;4.78;;;;;;;29.10;47.81;99307.16;4302258;33;33870;-71
2023/08/26 02:41:02;;;;;;;6.93;4.28;;;;;;;29.09;47.86;99305.47;4302504;33;34323;-71
2023/08/26 02:43:29;;;;;;;8.13;5.03;;;;;;;29.08;47.81;99298.34;4302676;33;34063;-73
2023/08/26 02:45:58;;;;;;;8.43;5.40;;;;;;;29.08;47.81;99298.34;4289816;33;34842;-70
2023/08/26 02:48:28;;;;;;;11.75;5.40;;;;;;;29.07;47.83;99302.19;4289767;33;33987;-75
2023/08/26 02:51:00;;;;;;;7.40;5.25;;;;;;;29.07;47.84;99304.12;4277792;33;33064;-73
2023/08/26 02:53:29;;;;;;;8.80;4.70;;;;;;;29.06;47.92;99306.03;4289629;33;33795;-73
2023/08/26 02:55:56;;;;;;;8.90;5.32;;;;;;;29.05;47.94;99304.41;4289397;33;34040;-73
2023/08/26 02:58:24;;;;;;;8.88;4.87;;;;;;;29.05;47.95;99309.03;4302326;33;34773;-70
2023/08/26 03:00:55;;;;;;;8.95;4.82;;;;;;;29.03;47.94;99306.59;4266152;33;32524;-72
2023/08/26 03:03:22;;;;;;;7.22;5.00;;;;;;;29.03;48.03;99297.53;4302498;33;33556;-73
2023/08/26 03:05:50;;;;;;;9.77;4.53;;;;;;;29.03;47.95;99306.59;4289352;33;33148;-70
2023/08/26 03:08:19;;;;;;;10.25;5.10;;;;;;;29.02;47.98;99310.44;4277258;33;34542;-75
2023/08/26 03:11:00;;;;;;;8.88;5.03;;;;;;;29.00;48.00;99307.13;4302514;33;33311;-70
2023/08/26 03:13:29;;;;;;;9.63;4.90;;;;;;;29.02;47.99;99302.19;4277382;33;32888;-73
2023/08/26 03:15:57;;;;;;;11.27;5.53;;;;;;;29.00;47.92;99309.88;4289139;33;33838;-72
2023/08/26 03:18:25;;;;;;;10.68;5.37;;;;;;;28.99;47.89;99300.00;4289042;33;34798;-74
2023/08/26 03:20:53;;;;;;;9.05;5.60;;;;;;;29.00;47.91;99312.63;4289195;33;33607;-71
2023/08/26 03:23:21;;;;;;;8.52;5.65;;;;;;;29.00;47.92;99306.31;4302318;33;33527;-73
2023/08/26 03:25:48;;;;;;;8.73;5.40;;;;;;;28.99;47.98;99310.97;4288924;33;33579;-69
2023/08/26 03:28:17;;;;;;;8.13;5.22;;;;;;;28.97;47.97;99310.44;4277249;33;33157;-73
2023/08/26 03:30:45;;;;;;;9.65;5.90;;;;;;;28.97;48.01;99307.69;4302185;33;33613;-71
2023/08/26 03:33:12;;;;;;;6.40;4.78;;;;;;;28.97;47.90;99304.94;4292347;33;34711;-72
2023/08/26 03:35:41;;;;;;;9.70;5.35;;;;;;;28.96;47.84;99311.56;4316868;33;33205;-72
2023/08/26 03:38:09;;;;;;;14.05;5.82;;;;;;;28.96;47.84;99306.06;4316487;33;34144;-71
2023/08/26 03:40:40;;;;;;;9.48;5.03;;;;;;;28.96;47.86;99311.56;4291135;33;34905;-71
2023/08/26 03:43:08;;;;;;;9.75;5.05;;;;;;;28.95;47.84;99310.69;4316248;33;33820;-70
2023/08/26 03:45:36;;;;;;;10.63;5.47;;;;;;;28.94;47.82;99308.22;4316408;33;34451;-72
2023/08/26 03:48:04;;;;;;;9.40;5.50;;;;;;;28.95;47.79;99309.88;4303577;33;33609;-73
2023/08/26 03:50:32;;;;;;;8.95;5.30;;;;;;;28.94;47.78;99305.47;4303215;33;34454;-71
2023/08/26 03:53:00;;;;;;;7.85;5.30;;;;;;;28.94;47.76;99310.94;4317998;33;33915;-72
2023/08/26 03:55:29;;;;;;;9.63;5.07;;;;;;;28.94;47.72;99302.72;4305031;33;32878;-70
2023/08/26 03:57:57;;;;;;;9.68;5.72;;;;;;;28.92;47.73;99300.25;4293068;33;33942;-74
2023/08/26 04:00:25;;;;;;;10.68;5.87;;;;;;;28.94;47.64;99288.97;4318312;33;34471;-70
2023/08/26 04:02:53;;;;;;;12.35;5.03;;;;;;;28.93;47.63;99298.31;4318181;33;33989;-74
2023/08/26 04:05:21;;;;;;;9.57;5.50;;;;;;;28.90;47.66;99296.94;4318481;33;34777;-70
2023/08/26 04:07:49;;;;;;;9.80;5.57;;;;;;;28.90;47.57;99296.12;4318029;33;33628;-72
2023/08/26 04:10:17;;;;;;;8.55;5.57;;;;;;;28.88;47.59;99298.34;4292955;33;34472;-70
2023/08/26 04:12:45;;;;;;;8.32;5.18;;;;;;;28.86;47.60;99295.84;4318138;33;33882;-74
2023/08/26 04:15:14;;;;;;;12.98;5.60;;;;;;;28.86;47.73;99303.25;4292715;33;32996;-72
2023/08/26 04:17:42;;;;;;;9.65;5.70;;;;;;;28.84;47.87;99306.28;4318473;33;34140;-71
2023/08/26 04:20:13;;;;;;;13.13;5.70;;;;;;;28.86;47.83;99311.50;4318024;33;34240;-74
2023/08/26 04:22:41;;;;;;;9.82;5.55;;;;;;;28.84;47.86;99305.47;4305132;33;33891;-75
2023/08/26 04:25:09;;;;;;;11.32;5.57;;;;;;;28.83;47.94;99310.13;4305115;33;33608;-70
2023/08/26 04:27:37;;;;;;;9.68;5.37;;;;;;;28.83;47.96;99312.88;4318226;33;35149;-74
2023/08/26 04:30:06;;;;;;;9.27;5.78;;;;;;;28.83;47.91;99314.81;4317997;33;33615;-71
2023/08/26 04:32:33;;;;;;;8.60;5.55;;;;;;;28.84;47.88;99316.44;4318118;33;33830;-71
2023/08/26 04:35:02;;;;;;;10.23;5.00;;;;;;;28.83;47.83;99310.13;4318005;33;34794;-74
2023/08/26 04:37:29;;;;;;;8.80;5.45;;;;;;;28.84;47.82;99316.44;4318267;33;33938;-70
2023/08/26 04:39:57;;;;;;;10.27;5.50;;;;;;;28.84;47.83;99313.72;4317962;33;33965;-71
2023/08/26 04:42:25;;;;;;;8.48;5.18;;;;;;;28.84;47.86;99308.22;4305218;33;33612;-71
2023/08/26 04:44:52;;;;;;;8.77;5.55;;;;;;;28.85;47.85;99312.59;4317875;33;34704;-75
2023/08/26 04:47:22;;;;;;;9.75;5.62;;;;;;;28.86;47.89;99314.25;4317966;33;33406;-74
2023/08/26 04:49:52;;;;;;;9.85;5.32;;;;;;;28.84;47.83;99317.28;4304371;33;33625;-75
2023/08/26 04:52:20;;;;;;;8.57;5.70;;;;;;;28.86;47.88;99319.72;4304786;33;33823;-72
2023/08/26 04:54:47;;;;;;;11.82;5.22;;;;;;;28.84;47.91;99321.94;4304823;33;33785;-70
2023/08/26 04:57:16;;;;;;;10.00;5.65;;;;;;;28.85;47.93;99323.59;4317719;33;34846;-72
2023/08/26 04:59:45;;;;;;;8.35;5.30;;;;;;;28.85;47.93;99320.84;4293032;33;33345;-72
2023/08/26 05:02:12;;;;;;;9.55;5.70;;;;;;;28.85;47.91;99312.59;4304423;33;33515;-73
2023/08/26 05:04:40;;;;;;;9.43;5.87;;;;;;;28.85;47.89;99310.69;4317747;33;33975;-75
2023/08/26 05:07:08;;;;;;;8.10;5.20;;;;;;;28.85;47.86;99316.16;4304739;33;34590;-72
2023/08/26 05:09:36;;;;;;;13.27;6.68;;;;;;;28.87;47.85;99313.16;4304747;33;33454;-72
2023/08/26 05:12:04;;;;;;;10.05;6.10;;;;;;;28.87;47.87;99315.91;4317788;33;34270;-71
2023/08/26 05:14:32;;;;;;;11.98;5.78;;;;;;;28.87;47.89;99313.16;4317784;33;33901;-75
2023/08/26 05:16:59;;;;;;;13.18;5.50;;;;;;;28.86;47.94;99315.06;4317901;33;34598;-75
2023/08/26 05:19:28;;;;;;;10.65;5.87;;;;;;;28.87;48.01;99315.91;4317651;33;33734;-75
2023/08/26 05:21:57;;;;;;;9.57;5.65;;;;;;;28.86;48.06;99306.81;4304657;33;34613;-71
2023/08/26 05:24:26;;;;;;;8.82;5.70;;;;;;;28.88;48.09;99312.88;4318026;33;33996;-73
2023/08/26 05:26:57;;;;;;;8.73;5.57;;;;;;;28.88;48.14;99310.13;4304813;33;33802;-74
2023/08/26 05:29:25;;;;;;;13.25;5.85;;;;;;;28.90;48.11;99324.41;4293116;33;34419;-75
2023/08/26 05:31:53;;;;;;;10.55;6.10;;;;;;;28.89;48.16;99314.53;4292403;33;32849;-72
2023/08/26 05:34:21;;;;;;;11.40;6.15;;;;;;;28.91;48.28;99311.50;4304811;33;33330;-74
2023/08/26 05:36:48;;;;;;;8.32;5.72;;;;;;;28.90;48.28;99316.16;4317692;33;34172;-70
2023/08/26 05:39:16;;;;;;;9.98;6.03;;;;;;;28.90;48.40;99310.66;4304115;33;32498;-75
2023/08/26 05:41:44;;;;;;;8.50;6.37;;;;;;;28.91;48.45;99315.09;4317453;33;34657;-75
2023/08/26 05:44:12;;;;;;;11.65;5.90;;;;;;;28.92;48.60;99318.66;4317604;33;33995;-72
2023/08/26 05:46:39;;;;;;;9.85;5.70;;;;;;;28.93;48.72;99328.53;4302720;33;33397;-75
2023/08/26 05:49:07;;;;;;;9.30;6.10;;;;;;;28.93;48.76;99326.62;4283665;33;33072;-76
2023/08/26 05:51:35;;;;;;;8.70;5.18;;;;;;;28.94;48.80;99325.50;4290049;33;33939;-69
2023/08/26 05:54:03;;;;;;;8.90;5.18;;;;;;;28.95;48.77;99316.19;4289993;33;34754;-73
2023/08/26 05:56:32;;;;;;;10.50;5.40;;;;;;;28.96;48.80;99322.53;4295813;33;34904;-74
2023/08/26 05:59:00;;;;;;;9.77;6.47;;;;;;;28.98;48.85;99329.38;4308972;33;33531;-76
2023/08/26 06:01:28;;;;;;;10.10;6.15;;;;;;;28.99;48.96;99332.94;4301494;33;33226;-70
2023/08/26 06:03:56;;;;;;;9.32;6.40;;;;;;;29.00;48.96;99334.59;4303458;33;34531;-74
2023/08/26 06:06:23;;;;;;;10.13;5.93;;;;;;;29.01;48.94;99336.25;4316971;33;35069;-71
2023/08/26 06:08:51;;;;;;;10.40;5.70;;;;;;;29.02;48.99;99342.59;4317179;33;33616;-70
2023/08/26 06:11:19;;;;;;;8.90;5.15;;;;;;;29.02;48.90;99340.66;4292303;33;32443;-69
2023/08/26 06:13:47;;;;;;;10.85;6.50;;;;;;;29.04;48.97;99338.44;4303715;33;33827;-69
2023/08/26 06:16:19;;;;;;;10.77;6.35;;;;;;;29.05;48.99;99342.88;4317447;33;34161;-69
2023/08/26 06:18:47;;;;;;;8.65;5.57;;;;;;;29.04;49.11;99346.69;4317371;33;33898;-70
2023/08/26 06:21:15;;;;;;;9.00;5.70;;;;;;;29.06;49.09;99346.44;4287822;33;33927;-71
2023/08/26 06:23:42;;;;;;;11.43;6.45;;;;;;;29.06;49.00;99340.94;4280588;33;33973;-71
2023/08/26 06:26:11;;;;;;;10.27;6.40;;;;;;;29.06;48.93;99350.00;4294441;33;34184;-68
2023/08/26 06:28:39;;;;;;;9.43;5.95;;;;;;;29.08;48.82;99352.47;4289963;33;34376;-71
2023/08/26 06:31:06;;;;;;;11.07;6.07;;;;;;;29.06;48.75;99347.25;4309315;33;33918;-73
2023/08/26 06:33:35;;;;;;;11.07;6.82;;;;;;;29.07;48.74;99346.16;4317188;33;33520;-72
2023/08/26 06:36:03;;;;;;;12.00;6.10;;;;;;;29.08;48.81;99352.47;4308139;33;34843;-72
2023/08/26 06:38:30;;;;;;;11.98;6.55;;;;;;;29.08;48.82;99353.28;4302346;33;34411;-74
2023/08/26 06:40:58;;;;;;;14.02;6.70;;;;;;;29.09;48.84;99354.09;4289130;33;33192;-73
2023/08/26 06:43:27;;;;;;;10.63;6.85;;;;;;;29.11;48.94;99354.66;4302501;33;33783;-74
2023/08/26 06:45:55;;;;;;;9.30;6.27;;;;;;;29.11;49.02;99358.22;4288845;33;35037;-73
2023/08/26 06:48:23;;;;;;;11.65;5.93;;;;;;;29.12;49.04;99357.12;4289483;33;32928;-71
2023/08/26 06:50:51;;;;;;;9.23;6.25;;;;;;;29.13;49.17;99364.25;4289923;33;33863;-73
2023/08/26 06:53:21;;;;;;;13.38;6.70;;;;;;;29.14;49.24;99365.09;4312380;33;33751;-74
2023/08/26 06:55:51;;;;;;;9.35;5.97;;;;;;;29.16;49.42;99360.16;4302283;33;35049;-74
2023/08/26 06:58:19;;;;;;;11.45;6.47;;;;;;;29.14;49.47;99363.16;4288760;33;33313;-72
2023/08/26 07:00:47;;;;;;;10.07;6.60;;;;;;;29.17;49.50;99362.63;4276879;33;33963;-72
2023/08/26 07:03:15;;;;;;;10.65;6.40;;;;;;;29.17;49.48;99359.88;4302108;33;33783;-73
2023/08/26 07:05:43;;;;;;;11.80;7.12;;;;;;;29.19;49.58;99365.94;4288805;33;34163;-72
2023/08/26 07:08:12;;;;;;;12.00;7.15;;;;;;;29.19;49.73;99365.94;4287710;33;33357;-73
2023/08/26 07:10:41;;;;;;;9.85;6.62;;;;;;;29.20;49.91;99369.50;4314531;33;34149;-72
2023/08/26 07:13:09;;;;;;;10.57;7.18;;;;;;;29.23;49.80;99367.00;4316706;33;33881;-73
2023/08/26 07:15:37;;;;;;;11.90;7.28;;;;;;;29.23;49.84;99375.25;4316480;33;34313;-74
2023/08/26 07:18:05;;;;;;;12.82;7.37;;;;;;;29.26;49.99;99373.88;4316524;33;34552;-73
2023/08/26 07:20:33;;;;;;;8.95;6.97;;;;;;;29.28;49.96;99370.84;4291238;33;34723;-73
2023/08/26 07:23:00;;;;;;;11.57;7.68;;;;;;;29.30;49.88;99368.66;4289591;33;32869;-73
2023/08/26 07:25:28;;;;;;;15.25;7.60;;;;;;;29.30;49.81;99372.22;4300908;33;33791;-71
2023/08/26 07:27:56;;;;;;;10.52;7.05;;;;;;;29.33;49.78;99370.84;4288390;33;33522;-69
2023/08/26 07:30:26;;;;;;;9.68;6.32;;;;;;;29.35;49.84;99360.41;4301782;33;34590;-73
2023/08/26 07:32:54;;;;;;;11.15;6.97;;;;;;;29.35;49.85;99368.66;4302148;33;34109;-74
2023/08/26 07:35:22;;;;;;;12.43;7.97;;;;;;;29.36;49.91;99367.56;4301904;33;34680;-74
2023/08/26 07:37:49;;;;;;;9.73;7.43;;;;;;;29.39;49.96;99369.75;4288558;33;33446;-73
2023/08/26 07:40:17;;;;;;;10.73;8.05;;;;;;;29.40;49.98;99372.22;4301302;33;35654;-73
2023/08/26 07:42:45;;;;;;;13.65;7.90;;;;;;;29.40;49.98;99371.41;4301567;33;33777;-73
2023/08/26 07:45:12;;;;;;;17.67;7.47;;;;;;;29.41;49.95;99371.09;4301787;33;34154;-73
2023/08/26 07:47:43;;;;;;;12.68;7.57;;;;;;;29.42;50.05;99361.75;4301630;33;33166;-69
2023/08/26 07:50:13;;;;;;;10.63;7.62;;;;;;;29.45;50.00;99360.37;4278023;33;33190;-72
2023/08/26 07:52:41;;;;;;;11.35;6.97;;;;;;;29.45;50.12;99354.91;4314412;33;33976;-75
2023/08/26 07:55:09;;;;;;;15.00;7.25;;;;;;;29.45;50.07;99357.66;4315898;33;34841;-70
2023/08/26 07:57:36;;;;;;;11.02;7.47;;;;;;;29.45;50.02;99355.72;4303252;33;32637;-73
2023/08/26 08:00:05;;;;;;;10.15;7.12;;;;;;;29.45;50.03;99358.47;4316272;33;33771;-73
2023/08/26 08:02:38;;;;;;;12.00;7.53;;;;;;;29.45;49.94;99350.22;4316000;33;34012;-74
2023/08/26 08:05:06;;;;;;;9.20;7.65;;;;;;;29.45;49.82;99350.22;4316364;33;34079;-71
2023/08/26 08:07:34;;;;;;;10.93;7.90;;;;;;;29.46;49.64;99346.37;4316567;33;33215;-72
2023/08/26 08:10:01;;;;;;;10.48;7.50;;;;;;;29.46;49.65;99351.03;4316031;33;34447;-73
2023/08/26 08:12:29;;;;;;;10.65;7.78;;;;;;;29.46;49.57;99348.28;4316256;33;33695;-73
2023/08/26 08:14:57;;;;;;;9.82;7.62;;;;;;;29.48;49.48;99344.19;4315654;33;33634;-71
2023/08/26 08:17:24;;;;;;;11.70;8.15;;;;;;;29.48;49.48;99340.59;4315608;33;33096;-72
2023/08/26 08:19:52;;;;;;;12.40;9.05;;;;;;;29.50;49.36;99346.63;4316148;33;33946;-73
2023/08/26 08:22:32;;;;;;;12.65;9.40;;;;;;;29.49;49.33;99343.06;4291811;33;33219;-71
2023/08/26 08:25:00;;;;;;;13.32;10.13;;;;;;;29.49;49.36;99348.56;4289680;33;34733;-74
2023/08/26 08:27:28;;;;;;;14.30;10.15;;;;;;;29.53;49.26;99342.53;4288248;33;33829;-74
2023/08/26 08:29:57;;;;;;;17.60;10.77;;;;;;;29.52;49.29;99349.94;4301377;33;33933;-78
2023/08/26 08:32:25;;;;;;;12.18;10.23;;;;;;;29.51;49.27;99345.53;4288353;33;34020;-76
2023/08/26 08:35:12;;;;;;;13.23;10.35;;;;;;;29.53;49.22;99348.84;4270814;33;34157;-78
2023/08/26 08:37:40;;;;;;;14.77;11.48;;;;;;;29.52;49.24;99347.19;4302271;33;33838;-76
2023/08/26 08:40:08;;;;;;;13.50;10.85;;;;;;;29.52;49.25;99343.59;4303494;33;33868;-75
2023/08/26 08:42:35;;;;;;;11.63;10.43;;;;;;;29.51;49.21;99340.03;4303321;33;33975;-78
2023/08/26 08:45:04;;;;;;;13.15;10.73;;;;;;;29.51;49.17;99339.22;4278422;33;33790;-77
2023/08/26 08:47:31;;;;;;;16.23;12.18;;;;;;;29.50;49.14;99335.63;4303494;33;34052;-78
2023/08/26 08:49:59;;;;;;;14.30;11.70;;;;;;;29.49;49.15;99326.56;4290166;33;34381;-77
2023/08/26 08:52:28;;;;;;;13.60;11.95;;;;;;;29.50;49.14;99338.37;4316521;33;34877;-78
2023/08/26 08:54:57;;;;;;;18.02;12.35;;;;;;;29.49;49.14;99334.81;4304765;33;33891;-78
2023/08/26 08:57:28;;;;;;;16.73;11.97;;;;;;;29.49;49.12;99334.00;4317734;33;33214;-68
2023/08/26 08:59:57;;;;;;;12.48;10.52;;;;;;;29.48;49.10;99329.63;4304912;33;33795;-77
2023/08/26 09:02:28;;;;;;;12.25;10.82;;;;;;;29.49;49.04;99328.50;4304853;33;33708;-77
2023/08/26 09:04:56;;;;;;;14.63;11.73;;;;;;;29.48;49.05;99324.94;4292807;33;34831;-77
2023/08/26 09:07:24;;;;;;;12.73;11.40;;;;;;;29.48;49.06;99319.44;4304184;33;34622;-78
2023/08/26 09:09:53;;;;;;;14.93;11.55;;;;;;;29.48;49.04;99315.87;4267759;33;33084;-76
2023/08/26 09:13:03;;;;;;;20.30;11.55;;;;;;;29.48;49.03;99324.13;4300005;33;34797;-74
2023/08/26 09:15:50;;;;;;;14.18;11.75;;;;;;;29.51;48.93;99318.03;4296571;33;33623;-74
2023/08/26 09:18:59;;;;;;;15.15;11.68;;;;;;;29.51;48.99;99312.53;4300543;33;33728;-74
2023/08/26 09:21:28;;;;;;;13.68;10.73;;;;;;;29.49;48.99;99314.75;4309086;33;33441;-73
2023/08/26 09:24:41;;;;;;;15.80;11.77;;;;;;;29.48;49.00;99315.87;4303220;33;33496;-75
2023/08/26 09:27:34;;;;;;;17.37;11.80;;;;;;;29.48;49.02;99313.13;4283092;33;34068;-75
2023/08/26 09:30:42;;;;;;;15.10;11.00;;;;;;;29.48;49.03;99302.13;4286993;33;33234;-75
2023/08/26 09:33:29;;;;;;;13.10;10.88;;;;;;;29.49;48.98;99295.53;4282269;33;33881;-78
2023/08/26 09:36:40;;;;;;;13.23;10.65;;;;;;;29.46;49.02;99305.13;4303734;33;33696;-74
2023/08/26 09:39:28;;;;;;;12.88;10.80;;;;;;;29.46;49.20;99299.63;4293613;33;34245;-74
2023/08/26 09:42:36;;;;;;;12.37;10.55;;;;;;;29.50;49.56;99299.91;4309811;33;33842;-74
2023/08/26 09:45:24;;;;;;;15.88;11.95;;;;;;;29.51;49.48;99300.72;4317271;33;33548;-74
2023/08/26 09:48:34;;;;;;;13.25;11.32;;;;;;;29.49;49.44;99301.03;4292916;33;33919;-73
2023/08/26 09:51:28;;;;;;;14.20;10.52;;;;;;;29.52;49.47;99307.87;4302722;33;33877;-75
2023/08/26 09:54:36;;;;;;;12.60;10.75;;;;;;;29.53;49.47;99298.53;4303043;33;34382;-74
2023/08/26 09:57:24;;;;;;;13.13;11.25;;;;;;;29.54;49.58;99301.00;4275591;33;172908;-75
2023/08/26 10:00:31;;;;;;;13.95;11.15;;;;;;;29.54;49.59;99295.50;4257123;33;34401;-74
2023/08/26 10:03:40;;;;;;;13.00;10.38;;;;;;;29.55;49.62;99290.84;4249359;33;33592;-74
2023/08/26 10:06:27;;;;;;;12.80;10.38;;;;;;;29.57;49.62;99299.66;4247328;33;32835;-74
2023/08/26 10:09:39;;;;;;;15.88;11.05;;;;;;;29.59;49.69;99297.44;4257435;33;34645;-74
2023/08/26 10:12:32;;;;;;;13.35;11.10;;;;;;;29.60;49.70;99290.84;4257053;33;34391;-74
2023/08/26 10:15:40;;;;;;;10.68;9.57;;;;;;;29.59;49.71;99295.50;4249990;33;34509;-75
2023/08/26 10:18:43;;;;;;;18.20;9.93;;;;;;;29.61;49.66;99281.47;4247329;33;33554;-75
2023/08/26 10:21:52;;;;;;;11.90;9.70;;;;;;;29.64;49.65;99276.25;4258831;33;34145;-75
2023/08/26 10:24:40;;;;;;;11.52;9.52;;;;;;;29.64;49.63;99278.19;4269748;33;34351;-74
2023/08/26 10:27:49;;;;;;;12.52;10.05;;;;;;;29.62;49.65;99272.16;4263313;33;34099;-75
2023/08/26 10:30:36;;;;;;;13.80;10.20;;;;;;;29.64;49.61;99262.50;4273413;33;33632;-74
2023/08/26 10:33:57;;;;;;;11.75;9.50;;;;;;;29.64;49.63;99267.19;4293813;33;33361;-75
2023/08/26 10:36:49;;;;;;;13.70;9.95;;;;;;;29.65;49.57;99255.91;4291358;33;33984;-74
2023/08/26 10:40:04;;;;;;;12.48;9.25;;;;;;;29.65;49.61;99250.41;4293724;33;33719;-76
2023/08/26 10:43:08;;;;;;;12.57;10.35;;;;;;;29.66;49.57;99251.25;4291821;33;33204;-75
2023/08/26 10:46:16;;;;;;;11.98;10.15;;;;;;;29.69;49.56;99242.41;4293865;33;33792;-74
2023/08/26 10:49:04;;;;;;;11.05;9.73;;;;;;;29.68;49.54;99238.03;4291060;33;33663;-74
2023/08/26 10:52:18;;;;;;;12.98;9.38;;;;;;;29.67;49.57;99245.47;4285533;33;34621;-74
2023/08/26 10:55:20;;;;;;;11.23;9.32;;;;;;;29.71;49.52;99243.78;4286832;33;33272;-75
2023/08/26 10:58:41;;;;;;;11.82;9.23;;;;;;;29.71;49.52;99243.78;4299402;33;34395;-75
2023/08/26 11:01:34;;;;;;;11.95;9.27;;;;;;;29.73;49.46;99233.31;4295204;33;33994;-74
2023/08/26 11:04:46;;;;;;;11.73;9.35;;;;;;;29.72;49.50;99214.38;4307867;33;34795;-75
2023/08/26 11:07:33;;;;;;;9.98;8.93;;;;;;;29.72;49.47;99217.94;4294821;33;33482;-74
2023/08/26 11:10:41;;;;;;;13.07;8.73;;;;;;;29.72;49.46;99234.44;4285647;33;33828;-74
2023/08/26 11:13:29;;;;;;;10.82;9.00;;;;;;;29.76;49.41;99228.38;4315140;33;33950;-75
2023/08/26 11:16:37;;;;;;;12.25;8.93;;;;;;;29.76;49.43;99233.88;4307607;33;34169;-76
2023/08/26 11:19:24;;;;;;;10.73;9.23;;;;;;;29.76;49.41;99220.94;4295308;33;33369;-74
2023/08/26 11:22:32;;;;;;;11.57;9.38;;;;;;;29.77;49.40;99233.59;4307280;33;34678;-75
2023/08/26 11:25:20;;;;;;;10.25;8.60;;;;;;;29.78;49.38;99226.16;4305048;33;34683;-74
2023/08/26 11:28:29;;;;;;;11.57;9.15;;;;;;;29.79;49.42;99214.84;4294920;33;32940;-75
2023/08/26 11:31:17;;;;;;;10.73;8.45;;;;;;;29.79;49.36;99214.03;4291098;33;33643;-75
2023/08/26 11:34:26;;;;;;;10.38;8.68;;;;;;;29.78;49.38;99204.16;4281033;33;33138;-75
2023/08/26 11:37:13;;;;;;;9.18;8.18;;;;;;;29.77;49.38;99205.25;4300650;33;33579;-75
2023/08/26 11:40:21;;;;;;;9.75;8.60;;;;;;;29.76;49.37;99196.19;4293457;33;34747;-75
2023/08/26 11:43:10;;;;;;;9.60;8.55;;;;;;;29.76;49.33;99198.94;4281441;33;33727;-75
2023/08/26 11:46:19;;;;;;;10.15;8.82;;;;;;;29.76;49.36;99195.38;4309038;33;34625;-75
2023/08/26 11:49:10;;;;;;;9.85;8.70;;;;;;;29.77;49.32;99197.00;4295548;33;33780;-75
2023/08/26 11:52:19;;;;;;;10.82;9.20;;;;;;;29.74;49.36;99204.72;4316731;33;34263;-75
2023/08/26 11:55:07;;;;;;;12.27;8.35;;;;;;;29.74;49.30;99193.72;4301141;33;34229;-75
2023/08/26 11:58:15;;;;;;;9.73;7.97;;;;;;;29.72;49.30;99198.69;4307134;33;33033;-75
2023/08/26 12:01:07;;;;;;;10.32;7.55;;;;;;;29.77;49.22;99189.59;4304711;33;34134;-75
2023/08/26 12:04:15;;;;;;;9.98;8.75;;;;;;;29.76;49.26;99190.69;4315919;33;33661;-74
2023/08/26 12:07:09;;;;;;;10.13;7.75;;;;;;;29.77;49.21;99186.03;4295090;33;33281;-75